sensor_id;sensor_type;location;lat;lon;timestamp;temperature;humidity
48998;DHT22;34807;51.456;7.244;2022-09-12T00:02:14;17.30;87.40
48998;DHT22;34807;51.456;7.244;2022-09-12T00:04:40;17.30;87.30
48998;DHT22;34807;51.456;7.244;2022-09-12T00:07:06;17.20;87.40
48998;DHT22;34807;51.456;7.244;2022-09-12T00:09:31;17.20;87.20
48998;DHT22;34807;51.456;7.244;2022-09-12T00:11:57;17.20;87.20
48998;DHT22;34807;51.456;7.244;2022-09-12T00:14:22;17.20;87.30
48998;DHT22;34807;51.456;7.244;2022-09-12T00:16:48;17.20;87.30
48998;DHT22;34807;51.456;7.244;2022-09-12T00:19:13;17.20;87.40
48998;DHT22;34807;51.456;7.244;2022-09-12T00:21:39;17.10;87.20
48998;DHT22;34807;51.456;7.244;2022-09-12T00:24:05;17.10;87.30
48998;DHT22;34807;51.456;7.244;2022-09-12T00:26:30;17.10;87.40
48998;DHT22;34807;51.456;7.244;2022-09-12T00:28:56;17.10;87.30
48998;DHT22;34807;51.456;7.244;2022-09-12T00:31:23;17.10;87.30
48998;DHT22;34807;51.456;7.244;2022-09-12T00:33:49;17.00;87.10
48998;DHT22;34807;51.456;7.244;2022-09-12T00:36:16;17.00;87.30
48998;DHT22;34807;51.456;7.244;2022-09-12T00:38:42;17.00;87.20
48998;DHT22;34807;51.456;7.244;2022-09-12T00:41:16;17.00;87.40
48998;DHT22;34807;51.456;7.244;2022-09-12T00:43:42;17.00;87.90
48998;DHT22;34807;51.456;7.244;2022-09-12T00:46:28;17.00;87.30
48998;DHT22;34807;51.456;7.244;2022-09-12T00:49:00;17.00;87.30
48998;DHT22;34807;51.456;7.244;2022-09-12T00:51:28;16.90;87.30
48998;DHT22;34807;51.456;7.244;2022-09-12T00:53:56;16.90;87.50
48998;DHT22;34807;51.456;7.244;2022-09-12T00:56:22;16.90;87.40
48998;DHT22;34807;51.456;7.244;2022-09-12T00:58:53;16.90;87.30
48998;DHT22;34807;51.456;7.244;2022-09-12T01:01:21;16.90;87.20
48998;DHT22;34807;51.456;7.244;2022-09-12T01:03:47;16.90;87.30
48998;DHT22;34807;51.456;7.244;2022-09-12T01:06:14;16.80;87.20
48998;DHT22;34807;51.456;7.244;2022-09-12T01:08:40;16.80;87.10
48998;DHT22;34807;51.456;7.244;2022-09-12T01:11:07;16.80;87.30
48998;DHT22;34807;51.456;7.244;2022-09-12T01:13:34;16.80;87.30
48998;DHT22;34807;51.456;7.244;2022-09-12T01:16:01;16.80;87.20
48998;DHT22;34807;51.456;7.244;2022-09-12T01:18:29;16.70;87.20
48998;DHT22;34807;51.456;7.244;2022-09-12T01:28:45;16.70;87.30
48998;DHT22;34807;51.456;7.244;2022-09-12T01:31:17;16.70;87.20
48998;DHT22;34807;51.456;7.244;2022-09-12T01:33:50;16.70;87.30
48998;DHT22;34807;51.456;7.244;2022-09-12T01:39:09;16.60;87.20
48998;DHT22;34807;51.456;7.244;2022-09-12T01:46:51;16.60;87.30
48998;DHT22;34807;51.456;7.244;2022-09-12T01:49:20;16.60;87.30
48998;DHT22;34807;51.456;7.244;2022-09-12T01:51:58;16.60;87.30
48998;DHT22;34807;51.456;7.244;2022-09-12T01:54:36;16.60;87.20
48998;DHT22;34807;51.456;7.244;2022-09-12T01:57:04;16.60;87.30
48998;DHT22;34807;51.456;7.244;2022-09-12T01:59:33;16.50;87.20
48998;DHT22;34807;51.456;7.244;2022-09-12T02:02:02;16.50;87.20
48998;DHT22;34807;51.456;7.244;2022-09-12T02:04:32;16.50;87.30
48998;DHT22;34807;51.456;7.244;2022-09-12T02:07:05;16.50;87.20
48998;DHT22;34807;51.456;7.244;2022-09-12T02:09:41;16.50;87.20
48998;DHT22;34807;51.456;7.244;2022-09-12T02:12:08;16.50;87.30
48998;DHT22;34807;51.456;7.244;2022-09-12T02:14:42;16.50;87.20
48998;DHT22;34807;51.456;7.244;2022-09-12T02:17:11;16.50;87.30
48998;DHT22;34807;51.456;7.244;2022-09-12T02:19:42;16.40;87.20
48998;DHT22;34807;51.456;7.244;2022-09-12T02:22:09;16.40;87.30
48998;DHT22;34807;51.456;7.244;2022-09-12T02:24:37;16.40;87.20
48998;DHT22;34807;51.456;7.244;2022-09-12T02:27:06;16.40;87.20
48998;DHT22;34807;51.456;7.244;2022-09-12T02:29:34;16.40;87.30
48998;DHT22;34807;51.456;7.244;2022-09-12T02:32:03;16.40;87.30
48998;DHT22;34807;51.456;7.244;2022-09-12T02:34:40;16.30;87.20
48998;DHT22;34807;51.456;7.244;2022-09-12T02:39:47;16.30;87.10
48998;DHT22;34807;51.456;7.244;2022-09-12T02:42:13;16.30;87.20
48998;DHT22;34807;51.456;7.244;2022-09-12T02:44:38;16.30;87.30
48998;DHT22;34807;51.456;7.244;2022-09-12T02:47:05;16.30;87.20
48998;DHT22;34807;51.456;7.244;2022-09-12T02:49:32;16.30;87.20
48998;DHT22;34807;51.456;7.244;2022-09-12T02:51:58;16.30;87.30
48998;DHT22;34807;51.456;7.244;2022-09-12T02:54:25;16.30;87.20
48998;DHT22;34807;51.456;7.244;2022-09-12T02:56:50;16.30;87.30
48998;DHT22;34807;51.456;7.244;2022-09-12T02:59:17;16.30;87.20
48998;DHT22;34807;51.456;7.244;2022-09-12T03:06:44;16.20;87.20
48998;DHT22;34807;51.456;7.244;2022-09-12T03:09:25;16.20;87.20
48998;DHT22;34807;51.456;7.244;2022-09-12T03:12:02;16.20;87.10
48998;DHT22;34807;51.456;7.244;2022-09-12T03:14:40;16.20;87.10
48998;DHT22;34807;51.456;7.244;2022-09-12T03:17:26;16.20;87.10
48998;DHT22;34807;51.456;7.244;2022-09-12T03:20:10;16.10;87.10
48998;DHT22;34807;51.456;7.244;2022-09-12T03:25:16;16.10;87.10
48998;DHT22;34807;51.456;7.244;2022-09-12T03:27:57;16.10;87.00
48998;DHT22;34807;51.456;7.244;2022-09-12T03:30:23;16.10;87.10
48998;DHT22;34807;51.456;7.244;2022-09-12T03:32:50;16.10;87.10
48998;DHT22;34807;51.456;7.244;2022-09-12T03:35:17;16.00;87.10
48998;DHT22;34807;51.456;7.244;2022-09-12T03:37:43;16.10;87.10
48998;DHT22;34807;51.456;7.244;2022-09-12T03:40:10;16.00;87.00
48998;DHT22;34807;51.456;7.244;2022-09-12T03:42:36;16.00;87.10
48998;DHT22;34807;51.456;7.244;2022-09-12T03:45:01;16.00;87.10
48998;DHT22;34807;51.456;7.244;2022-09-12T03:47:27;16.00;87.10
48998;DHT22;34807;51.456;7.244;2022-09-12T03:49:53;16.00;87.00
48998;DHT22;34807;51.456;7.244;2022-09-12T03:52:18;16.00;87.10
48998;DHT22;34807;51.456;7.244;2022-09-12T03:54:43;16.00;87.10
48998;DHT22;34807;51.456;7.244;2022-09-12T03:57:09;16.00;87.10
48998;DHT22;34807;51.456;7.244;2022-09-12T03:59:34;15.90;87.00
48998;DHT22;34807;51.456;7.244;2022-09-12T04:02:00;15.90;86.90
48998;DHT22;34807;51.456;7.244;2022-09-12T04:04:26;15.90;87.00
48998;DHT22;34807;51.456;7.244;2022-09-12T04:06:51;15.90;87.00
48998;DHT22;34807;51.456;7.244;2022-09-12T04:09:16;15.90;87.00
48998;DHT22;34807;51.456;7.244;2022-09-12T04:11:42;15.90;87.10
48998;DHT22;34807;51.456;7.244;2022-09-12T04:14:07;15.90;87.10
48998;DHT22;34807;51.456;7.244;2022-09-12T04:16:33;15.90;87.00
48998;DHT22;34807;51.456;7.244;2022-09-12T04:18:58;15.90;87.10
48998;DHT22;34807;51.456;7.244;2022-09-12T04:21:24;15.80;86.90
48998;DHT22;34807;51.456;7.244;2022-09-12T04:23:49;15.90;87.10
48998;DHT22;34807;51.456;7.244;2022-09-12T04:26:15;15.80;87.00
48998;DHT22;34807;51.456;7.244;2022-09-12T04:28:42;15.80;87.10
48998;DHT22;34807;51.456;7.244;2022-09-12T04:31:11;15.80;87.00
48998;DHT22;34807;51.456;7.244;2022-09-12T04:33:39;15.80;87.10
48998;DHT22;34807;51.456;7.244;2022-09-12T04:36:06;15.80;87.10
48998;DHT22;34807;51.456;7.244;2022-09-12T04:38:32;15.70;87.00
48998;DHT22;34807;51.456;7.244;2022-09-12T04:40:57;15.80;87.10
48998;DHT22;34807;51.456;7.244;2022-09-12T04:43:23;15.80;87.10
48998;DHT22;34807;51.456;7.244;2022-09-12T04:45:48;15.80;87.10
48998;DHT22;34807;51.456;7.244;2022-09-12T04:48:14;15.80;87.00
48998;DHT22;34807;51.456;7.244;2022-09-12T04:50:39;15.70;87.10
48998;DHT22;34807;51.456;7.244;2022-09-12T04:53:05;15.70;87.00
48998;DHT22;34807;51.456;7.244;2022-09-12T04:55:32;15.70;87.10
48998;DHT22;34807;51.456;7.244;2022-09-12T04:57:58;15.70;87.00
48998;DHT22;34807;51.456;7.244;2022-09-12T05:00:23;15.70;87.10
48998;DHT22;34807;51.456;7.244;2022-09-12T05:02:49;15.70;87.10
48998;DHT22;34807;51.456;7.244;2022-09-12T05:05:14;15.70;87.00
48998;DHT22;34807;51.456;7.244;2022-09-12T05:07:41;15.70;87.10
48998;DHT22;34807;51.456;7.244;2022-09-12T05:10:07;15.70;87.10
48998;DHT22;34807;51.456;7.244;2022-09-12T05:12:32;15.70;87.40
48998;DHT22;34807;51.456;7.244;2022-09-12T05:14:58;15.70;87.00
48998;DHT22;34807;51.456;7.244;2022-09-12T05:17:23;15.70;87.10
48998;DHT22;34807;51.456;7.244;2022-09-12T05:19:49;15.70;87.00
48998;DHT22;34807;51.456;7.244;2022-09-12T05:22:15;15.70;87.10
48998;DHT22;34807;51.456;7.244;2022-09-12T05:24:40;15.70;87.10
48998;DHT22;34807;51.456;7.244;2022-09-12T05:27:08;15.70;87.10
48998;DHT22;34807;51.456;7.244;2022-09-12T05:29:33;15.70;87.00
48998;DHT22;34807;51.456;7.244;2022-09-12T05:31:59;15.70;87.10
48998;DHT22;34807;51.456;7.244;2022-09-12T05:34:24;15.60;87.00
48998;DHT22;34807;51.456;7.244;2022-09-12T05:36:50;15.70;87.00
48998;DHT22;34807;51.456;7.244;2022-09-12T05:39:15;15.70;87.10
48998;DHT22;34807;51.456;7.244;2022-09-12T05:41:41;15.60;87.00
48998;DHT22;34807;51.456;7.244;2022-09-12T05:44:10;15.60;86.90
48998;DHT22;34807;51.456;7.244;2022-09-12T05:46:39;15.60;87.00
48998;DHT22;34807;51.456;7.244;2022-09-12T05:49:09;15.60;87.00
48998;DHT22;34807;51.456;7.244;2022-09-12T05:51:36;15.70;87.10
48998;DHT22;34807;51.456;7.244;2022-09-12T05:54:03;15.70;86.90
48998;DHT22;34807;51.456;7.244;2022-09-12T05:56:30;15.70;87.10
48998;DHT22;34807;51.456;7.244;2022-09-12T05:59:02;15.70;87.10
48998;DHT22;34807;51.456;7.244;2022-09-12T06:01:29;15.70;87.10
48998;DHT22;34807;51.456;7.244;2022-09-12T06:03:56;15.70;87.10
48998;DHT22;34807;51.456;7.244;2022-09-12T06:06:23;15.70;87.10
48998;DHT22;34807;51.456;7.244;2022-09-12T06:08:49;15.70;87.10
48998;DHT22;34807;51.456;7.244;2022-09-12T06:11:16;15.70;87.10
48998;DHT22;34807;51.456;7.244;2022-09-12T06:13:42;15.70;87.00
48998;DHT22;34807;51.456;7.244;2022-09-12T06:16:10;15.70;87.00
48998;DHT22;34807;51.456;7.244;2022-09-12T06:18:36;15.70;87.00
48998;DHT22;34807;51.456;7.244;2022-09-12T06:21:05;15.70;87.00
48998;DHT22;34807;51.456;7.244;2022-09-12T06:23:31;15.70;87.10
48998;DHT22;34807;51.456;7.244;2022-09-12T06:25:57;15.70;87.10
48998;DHT22;34807;51.456;7.244;2022-09-12T06:28:22;15.80;87.00
48998;DHT22;34807;51.456;7.244;2022-09-12T06:30:49;15.80;87.00
48998;DHT22;34807;51.456;7.244;2022-09-12T06:33:14;15.80;87.10
48998;DHT22;34807;51.456;7.244;2022-09-12T06:35:40;15.80;86.90
48998;DHT22;34807;51.456;7.244;2022-09-12T06:38:05;15.80;86.90
48998;DHT22;34807;51.456;7.244;2022-09-12T06:40:31;15.90;87.00
48998;DHT22;34807;51.456;7.244;2022-09-12T06:42:57;15.90;87.00
48998;DHT22;34807;51.456;7.244;2022-09-12T06:45:22;15.90;86.90
48998;DHT22;34807;51.456;7.244;2022-09-12T06:47:48;16.00;87.00
48998;DHT22;34807;51.456;7.244;2022-09-12T06:50:13;16.00;87.10
48998;DHT22;34807;51.456;7.244;2022-09-12T06:52:39;16.00;86.80
48998;DHT22;34807;51.456;7.244;2022-09-12T06:55:05;16.10;86.80
48998;DHT22;34807;51.456;7.244;2022-09-12T06:57:30;16.10;86.80
48998;DHT22;34807;51.456;7.244;2022-09-12T06:59:56;16.10;86.90
48998;DHT22;34807;51.456;7.244;2022-09-12T07:02:23;16.10;86.70
48998;DHT22;34807;51.456;7.244;2022-09-12T07:04:50;16.20;86.80
48998;DHT22;34807;51.456;7.244;2022-09-12T07:07:16;16.20;86.70
48998;DHT22;34807;51.456;7.244;2022-09-12T07:09:41;16.20;86.70
48998;DHT22;34807;51.456;7.244;2022-09-12T07:12:07;16.30;86.60
48998;DHT22;34807;51.456;7.244;2022-09-12T07:14:32;16.30;86.60
48998;DHT22;34807;51.456;7.244;2022-09-12T07:16:58;16.30;86.50
48998;DHT22;34807;51.456;7.244;2022-09-12T07:19:23;16.40;86.30
48998;DHT22;34807;51.456;7.244;2022-09-12T07:21:49;16.40;86.20
48998;DHT22;34807;51.456;7.244;2022-09-12T07:24:14;16.50;86.20
48998;DHT22;34807;51.456;7.244;2022-09-12T07:26:40;16.50;86.00
48998;DHT22;34807;51.456;7.244;2022-09-12T07:29:06;16.50;86.00
48998;DHT22;34807;51.456;7.244;2022-09-12T07:31:33;16.60;86.00
48998;DHT22;34807;51.456;7.244;2022-09-12T07:33:58;16.60;86.00
48998;DHT22;34807;51.456;7.244;2022-09-12T07:36:24;16.60;85.90
48998;DHT22;34807;51.456;7.244;2022-09-12T07:38:54;16.70;85.90
48998;DHT22;34807;51.456;7.244;2022-09-12T07:41:21;16.70;85.90
48998;DHT22;34807;51.456;7.244;2022-09-12T07:43:50;16.70;85.80
48998;DHT22;34807;51.456;7.244;2022-09-12T07:46:15;16.80;85.90
48998;DHT22;34807;51.456;7.244;2022-09-12T07:48:41;16.80;85.80
48998;DHT22;34807;51.456;7.244;2022-09-12T07:51:08;16.80;85.70
48998;DHT22;34807;51.456;7.244;2022-09-12T07:53:34;16.90;85.70
48998;DHT22;34807;51.456;7.244;2022-09-12T07:56:01;16.90;85.60
48998;DHT22;34807;51.456;7.244;2022-09-12T07:58:27;17.00;85.70
48998;DHT22;34807;51.456;7.244;2022-09-12T08:00:53;17.00;85.60
48998;DHT22;34807;51.456;7.244;2022-09-12T08:03:19;17.00;85.60
48998;DHT22;34807;51.456;7.244;2022-09-12T08:05:44;17.00;85.50
48998;DHT22;34807;51.456;7.244;2022-09-12T08:08:10;17.10;85.50
48998;DHT22;34807;51.456;7.244;2022-09-12T08:10:35;17.10;85.40
48998;DHT22;34807;51.456;7.244;2022-09-12T08:13:01;17.20;85.40
48998;DHT22;34807;51.456;7.244;2022-09-12T08:15:28;17.20;85.30
48998;DHT22;34807;51.456;7.244;2022-09-12T08:17:53;17.30;85.30
48998;DHT22;34807;51.456;7.244;2022-09-12T08:20:19;17.30;85.20
48998;DHT22;34807;51.456;7.244;2022-09-12T08:22:44;17.30;85.10
48998;DHT22;34807;51.456;7.244;2022-09-12T08:25:10;17.40;85.10
48998;DHT22;34807;51.456;7.244;2022-09-12T08:27:36;17.40;85.00
48998;DHT22;34807;51.456;7.244;2022-09-12T08:30:02;17.50;85.00
48998;DHT22;34807;51.456;7.244;2022-09-12T08:32:28;17.50;84.90
48998;DHT22;34807;51.456;7.244;2022-09-12T08:34:53;17.50;84.80
48998;DHT22;34807;51.456;7.244;2022-09-12T08:37:19;17.60;84.80
48998;DHT22;34807;51.456;7.244;2022-09-12T08:39:44;17.60;84.80
48998;DHT22;34807;51.456;7.244;2022-09-12T08:42:10;17.60;84.70
48998;DHT22;34807;51.456;7.244;2022-09-12T08:47:25;17.70;84.70
48998;DHT22;34807;51.456;7.244;2022-09-12T08:52:22;17.80;84.60
48998;DHT22;34807;51.456;7.244;2022-09-12T08:54:49;17.80;84.60
48998;DHT22;34807;51.456;7.244;2022-09-12T08:57:15;17.80;84.50
48998;DHT22;34807;51.456;7.244;2022-09-12T08:59:41;17.80;84.60
48998;DHT22;34807;51.456;7.244;2022-09-12T09:04:43;17.90;84.40
48998;DHT22;34807;51.456;7.244;2022-09-12T09:07:17;18.00;84.40
48998;DHT22;34807;51.456;7.244;2022-09-12T09:17:31;18.10;84.20
48998;DHT22;34807;51.456;7.244;2022-09-12T09:25:10;18.20;84.10
48998;DHT22;34807;51.456;7.244;2022-09-12T09:27:42;18.20;84.10
48998;DHT22;34807;51.456;7.244;2022-09-12T09:30:14;18.30;84.20
48998;DHT22;34807;51.456;7.244;2022-09-12T09:32:40;18.30;84.10
48998;DHT22;34807;51.456;7.244;2022-09-12T09:35:51;18.40;83.90
48998;DHT22;34807;51.456;7.244;2022-09-12T09:43:11;18.50;83.60
48998;DHT22;34807;51.456;7.244;2022-09-12T09:45:39;18.50;84.30
48998;DHT22;34807;51.456;7.244;2022-09-12T09:50:42;18.50;83.80
48998;DHT22;34807;51.456;7.244;2022-09-12T09:53:10;18.50;83.70
48998;DHT22;34807;51.456;7.244;2022-09-12T09:55:40;18.60;83.80
48998;DHT22;34807;51.456;7.244;2022-09-12T09:58:06;18.60;83.80
48998;DHT22;34807;51.456;7.244;2022-09-12T10:00:32;18.70;83.40
48998;DHT22;34807;51.456;7.244;2022-09-12T10:05:34;18.80;83.20
48998;DHT22;34807;51.456;7.244;2022-09-12T10:08:01;18.80;83.10
48998;DHT22;34807;51.456;7.244;2022-09-12T10:10:28;18.80;82.90
48998;DHT22;34807;51.456;7.244;2022-09-12T10:13:06;18.80;83.10
48998;DHT22;34807;51.456;7.244;2022-09-12T10:15:33;18.90;83.20
48998;DHT22;34807;51.456;7.244;2022-09-12T10:17:59;18.90;83.00
48998;DHT22;34807;51.456;7.244;2022-09-12T10:20:29;18.90;83.20
48998;DHT22;34807;51.456;7.244;2022-09-12T10:22:55;18.90;82.90
48998;DHT22;34807;51.456;7.244;2022-09-12T10:25:22;19.00;83.00
48998;DHT22;34807;51.456;7.244;2022-09-12T10:27:56;19.00;83.30
48998;DHT22;34807;51.456;7.244;2022-09-12T10:30:22;19.10;83.20
48998;DHT22;34807;51.456;7.244;2022-09-12T10:32:53;19.10;83.00
48998;DHT22;34807;51.456;7.244;2022-09-12T10:35:27;19.10;83.00
48998;DHT22;34807;51.456;7.244;2022-09-12T10:42:50;19.40;83.00
48998;DHT22;34807;51.456;7.244;2022-09-12T10:47:48;19.50;82.50
48998;DHT22;34807;51.456;7.244;2022-09-12T10:50:57;19.60;82.60
48998;DHT22;34807;51.456;7.244;2022-09-12T10:53:13;19.60;82.60
48998;DHT22;34807;51.456;7.244;2022-09-12T10:55:39;19.70;82.60
48998;DHT22;34807;51.456;7.244;2022-09-12T10:58:12;19.80;82.70
48998;DHT22;34807;51.456;7.244;2022-09-12T11:00:43;19.90;82.60
48998;DHT22;34807;51.456;7.244;2022-09-12T11:03:18;20.00;82.60
48998;DHT22;34807;51.456;7.244;2022-09-12T11:05:48;20.10;83.70
48998;DHT22;34807;51.456;7.244;2022-09-12T11:31:41;21.10;81.40
48998;DHT22;34807;51.456;7.244;2022-09-12T11:34:09;21.20;81.20
48998;DHT22;34807;51.456;7.244;2022-09-12T11:39:20;21.40;81.20
48998;DHT22;34807;51.456;7.244;2022-09-12T11:41:50;21.50;81.00
48998;DHT22;34807;51.456;7.244;2022-09-12T11:44:21;21.60;80.80
48998;DHT22;34807;51.456;7.244;2022-09-12T11:46:47;21.70;81.10
48998;DHT22;34807;51.456;7.244;2022-09-12T11:56:30;22.10;80.30
48998;DHT22;34807;51.456;7.244;2022-09-12T11:59:02;22.20;80.10
48998;DHT22;34807;51.456;7.244;2022-09-12T12:01:34;22.20;80.40
48998;DHT22;34807;51.456;7.244;2022-09-12T12:04:05;22.20;80.30
48998;DHT22;34807;51.456;7.244;2022-09-12T12:07:17;22.30;80.50
48998;DHT22;34807;51.456;7.244;2022-09-12T12:09:17;22.40;80.30
48998;DHT22;34807;51.456;7.244;2022-09-12T12:11:46;22.40;80.50
48998;DHT22;34807;51.456;7.244;2022-09-12T12:16:37;22.60;80.30
48998;DHT22;34807;51.456;7.244;2022-09-12T12:19:03;22.60;80.40
48998;DHT22;34807;51.456;7.244;2022-09-12T12:21:38;22.70;80.50
48998;DHT22;34807;51.456;7.244;2022-09-12T12:29:49;22.80;80.40
48998;DHT22;34807;51.456;7.244;2022-09-12T12:34:30;22.90;80.40
48998;DHT22;34807;51.456;7.244;2022-09-12T12:36:56;22.90;80.30
48998;DHT22;34807;51.456;7.244;2022-09-12T12:41:57;23.00;80.30
48998;DHT22;34807;51.456;7.244;2022-09-12T12:47:15;23.10;80.20
48998;DHT22;34807;51.456;7.244;2022-09-12T12:49:42;23.10;81.40
48998;DHT22;34807;51.456;7.244;2022-09-12T12:52:14;23.20;80.50
48998;DHT22;34807;51.456;7.244;2022-09-12T12:59:44;23.40;79.50
48998;DHT22;34807;51.456;7.244;2022-09-12T13:02:17;23.40;79.40
48998;DHT22;34807;51.456;7.244;2022-09-12T13:04:43;23.50;79.40
48998;DHT22;34807;51.456;7.244;2022-09-12T13:07:12;23.50;79.50
48998;DHT22;34807;51.456;7.244;2022-09-12T13:09:45;23.60;79.50
48998;DHT22;34807;51.456;7.244;2022-09-12T13:12:17;23.60;79.40
48998;DHT22;34807;51.456;7.244;2022-09-12T13:14:48;23.70;79.60
48998;DHT22;34807;51.456;7.244;2022-09-12T13:17:36;23.70;79.80
48998;DHT22;34807;51.456;7.244;2022-09-12T13:22:42;23.70;80.60
48998;DHT22;34807;51.456;7.244;2022-09-12T13:25:25;23.80;80.40
48998;DHT22;34807;51.456;7.244;2022-09-12T13:27:57;23.80;79.70
48998;DHT22;34807;51.456;7.244;2022-09-12T13:30:23;23.90;79.60
48998;DHT22;34807;51.456;7.244;2022-09-12T13:32:49;23.90;79.50
48998;DHT22;34807;51.456;7.244;2022-09-12T13:35:22;23.90;79.40
48998;DHT22;34807;51.456;7.244;2022-09-12T13:43:11;24.00;79.50
48998;DHT22;34807;51.456;7.244;2022-09-12T13:45:39;24.10;79.20
48998;DHT22;34807;51.456;7.244;2022-09-12T13:48:05;24.10;78.80
48998;DHT22;34807;51.456;7.244;2022-09-12T13:50:35;24.10;78.70
48998;DHT22;34807;51.456;7.244;2022-09-12T13:53:06;24.10;78.00
48998;DHT22;34807;51.456;7.244;2022-09-12T13:55:36;24.20;78.20
48998;DHT22;34807;51.456;7.244;2022-09-12T13:58:04;24.20;77.80
48998;DHT22;34807;51.456;7.244;2022-09-12T14:00:30;24.30;77.80
48998;DHT22;34807;51.456;7.244;2022-09-12T14:02:57;24.20;77.30
48998;DHT22;34807;51.456;7.244;2022-09-12T14:05:41;24.30;77.60
48998;DHT22;34807;51.456;7.244;2022-09-12T14:08:09;24.30;77.40
48998;DHT22;34807;51.456;7.244;2022-09-12T14:10:39;24.30;77.10
48998;DHT22;34807;51.456;7.244;2022-09-12T14:13:10;24.30;76.70
48998;DHT22;34807;51.456;7.244;2022-09-12T14:15:36;24.40;77.00
48998;DHT22;34807;51.456;7.244;2022-09-12T14:18:03;24.40;76.10
48998;DHT22;34807;51.456;7.244;2022-09-12T14:20:29;24.40;76.20
48998;DHT22;34807;51.456;7.244;2022-09-12T14:23:02;24.40;76.30
48998;DHT22;34807;51.456;7.244;2022-09-12T14:25:33;24.40;75.60
48998;DHT22;34807;51.456;7.244;2022-09-12T14:28:01;24.40;76.00
48998;DHT22;34807;51.456;7.244;2022-09-12T14:30:28;24.50;76.00
48998;DHT22;34807;51.456;7.244;2022-09-12T14:33:30;24.50;75.60
48998;DHT22;34807;51.456;7.244;2022-09-12T14:35:49;24.50;75.50
48998;DHT22;34807;51.456;7.244;2022-09-12T14:40:42;24.60;74.70
48998;DHT22;34807;51.456;7.244;2022-09-12T14:46:14;24.70;74.00
48998;DHT22;34807;51.456;7.244;2022-09-12T14:48:41;24.80;73.60
48998;DHT22;34807;51.456;7.244;2022-09-12T14:51:07;24.80;73.50
48998;DHT22;34807;51.456;7.244;2022-09-12T14:53:33;24.90;73.10
48998;DHT22;34807;51.456;7.244;2022-09-12T14:56:09;25.00;73.30
48998;DHT22;34807;51.456;7.244;2022-09-12T14:58:36;25.00;73.20
48998;DHT22;34807;51.456;7.244;2022-09-12T15:01:20;25.10;72.90
48998;DHT22;34807;51.456;7.244;2022-09-12T15:06:31;25.20;72.80
48998;DHT22;34807;51.456;7.244;2022-09-12T15:08:58;25.30;73.10
48998;DHT22;34807;51.456;7.244;2022-09-12T15:11:24;25.30;72.20
48998;DHT22;34807;51.456;7.244;2022-09-12T15:13:50;25.40;72.30
48998;DHT22;34807;51.456;7.244;2022-09-12T15:16:16;25.50;72.20
48998;DHT22;34807;51.456;7.244;2022-09-12T15:18:41;25.60;72.30
48998;DHT22;34807;51.456;7.244;2022-09-12T15:21:09;25.70;71.70
48998;DHT22;34807;51.456;7.244;2022-09-12T15:23:48;25.80;71.50
48998;DHT22;34807;51.456;7.244;2022-09-12T15:26:15;25.80;71.20
48998;DHT22;34807;51.456;7.244;2022-09-12T15:28:41;25.80;71.60
48998;DHT22;34807;51.456;7.244;2022-09-12T15:31:29;25.90;71.10
48998;DHT22;34807;51.456;7.244;2022-09-12T15:33:53;26.00;71.20
48998;DHT22;34807;51.456;7.244;2022-09-12T15:36:19;26.20;70.60
48998;DHT22;34807;51.456;7.244;2022-09-12T15:38:46;26.40;70.50
48998;DHT22;34807;51.456;7.244;2022-09-12T15:43:40;26.50;69.90
48998;DHT22;34807;51.456;7.244;2022-09-12T15:46:07;26.50;69.70
48998;DHT22;34807;51.456;7.244;2022-09-12T15:48:34;26.70;69.60
48998;DHT22;34807;51.456;7.244;2022-09-12T15:50:59;26.90;69.10
48998;DHT22;34807;51.456;7.244;2022-09-12T15:53:26;27.00;68.90
48998;DHT22;34807;51.456;7.244;2022-09-12T15:55:51;27.10;68.20
48998;DHT22;34807;51.456;7.244;2022-09-12T15:58:17;27.20;68.10
48998;DHT22;34807;51.456;7.244;2022-09-12T16:00:42;27.40;67.50
48998;DHT22;34807;51.456;7.244;2022-09-12T16:03:11;27.50;67.00
48998;DHT22;34807;51.456;7.244;2022-09-12T16:05:40;27.60;67.00
48998;DHT22;34807;51.456;7.244;2022-09-12T16:08:05;27.60;66.70
48998;DHT22;34807;51.456;7.244;2022-09-12T16:10:31;27.80;66.60
48998;DHT22;34807;51.456;7.244;2022-09-12T16:12:56;28.00;66.00
48998;DHT22;34807;51.456;7.244;2022-09-12T16:15:23;28.10;65.80
48998;DHT22;34807;51.456;7.244;2022-09-12T16:17:49;28.10;65.70
48998;DHT22;34807;51.456;7.244;2022-09-12T16:20:15;28.00;65.60
48998;DHT22;34807;51.456;7.244;2022-09-12T16:22:41;28.00;65.30
48998;DHT22;34807;51.456;7.244;2022-09-12T16:25:06;28.00;65.70
48998;DHT22;34807;51.456;7.244;2022-09-12T16:27:32;27.80;65.70
48998;DHT22;34807;51.456;7.244;2022-09-12T16:29:58;27.70;66.20
48998;DHT22;34807;51.456;7.244;2022-09-12T16:32:23;27.50;66.60
48998;DHT22;34807;51.456;7.244;2022-09-12T16:34:49;27.30;67.10
48998;DHT22;34807;51.456;7.244;2022-09-12T16:37:15;27.20;67.70
48998;DHT22;34807;51.456;7.244;2022-09-12T16:39:41;27.10;68.00
48998;DHT22;34807;51.456;7.244;2022-09-12T16:42:06;27.00;68.20
48998;DHT22;34807;51.456;7.244;2022-09-12T16:44:32;26.90;68.60
48998;DHT22;34807;51.456;7.244;2022-09-12T16:46:57;26.80;68.80
48998;DHT22;34807;51.456;7.244;2022-09-12T16:49:23;26.60;69.40
48998;DHT22;34807;51.456;7.244;2022-09-12T16:51:48;26.50;70.10
48998;DHT22;34807;51.456;7.244;2022-09-12T16:54:14;26.40;70.80
48998;DHT22;34807;51.456;7.244;2022-09-12T16:56:40;26.20;70.90
48998;DHT22;34807;51.456;7.244;2022-09-12T16:59:06;26.00;71.60
48998;DHT22;34807;51.456;7.244;2022-09-12T17:01:32;25.90;71.70
48998;DHT22;34807;51.456;7.244;2022-09-12T17:03:59;25.80;71.30
48998;DHT22;34807;51.456;7.244;2022-09-12T17:06:24;25.70;72.30
48998;DHT22;34807;51.456;7.244;2022-09-12T17:08:51;25.60;72.80
48998;DHT22;34807;51.456;7.244;2022-09-12T17:11:20;25.50;73.10
48998;DHT22;34807;51.456;7.244;2022-09-12T17:13:47;25.40;73.20
48998;DHT22;34807;51.456;7.244;2022-09-12T17:16:12;25.30;73.20
48998;DHT22;34807;51.456;7.244;2022-09-12T17:18:38;25.20;73.30
48998;DHT22;34807;51.456;7.244;2022-09-12T17:21:05;25.10;73.40
48998;DHT22;34807;51.456;7.244;2022-09-12T17:23:30;25.00;73.30
48998;DHT22;34807;51.456;7.244;2022-09-12T17:25:57;24.90;73.80
48998;DHT22;34807;51.456;7.244;2022-09-12T17:28:22;24.80;73.90
48998;DHT22;34807;51.456;7.244;2022-09-12T17:30:54;24.70;74.30
48998;DHT22;34807;51.456;7.244;2022-09-12T17:33:21;24.60;74.30
48998;DHT22;34807;51.456;7.244;2022-09-12T17:35:46;24.50;74.70
48998;DHT22;34807;51.456;7.244;2022-09-12T17:38:12;24.40;74.90
48998;DHT22;34807;51.456;7.244;2022-09-12T17:40:37;24.30;75.00
48998;DHT22;34807;51.456;7.244;2022-09-12T17:43:03;24.20;75.20
48998;DHT22;34807;51.456;7.244;2022-09-12T17:45:28;24.20;75.40
48998;DHT22;34807;51.456;7.244;2022-09-12T17:47:54;24.10;75.40
48998;DHT22;34807;51.456;7.244;2022-09-12T17:50:19;24.00;75.70
48998;DHT22;34807;51.456;7.244;2022-09-12T17:52:45;23.90;75.90